createdAt,value
2018-09-08T00:01:07.102Z,14.50
2018-09-08T00:03:35.190Z,13.40
2018-09-08T00:06:05.299Z,11.07
2018-09-08T00:08:33.342Z,11.20
2018-09-08T00:11:03.645Z,11.60
2018-09-08T00:13:31.674Z,12.37
2018-09-08T00:16:05.297Z,11.03
2018-09-08T00:18:38.840Z,12.17
2018-09-08T00:21:14.644Z,11.93
2018-09-08T00:23:48.231Z,10.63
2018-09-08T00:26:21.811Z,11.00
2018-09-08T00:28:55.438Z,10.50
2018-09-08T00:31:23.668Z,12.33
2018-09-08T00:33:51.742Z,11.10
2018-09-08T00:36:22.093Z,11.33
2018-09-08T00:38:50.219Z,9.77
2018-09-08T00:41:18.404Z,10.30
2018-09-08T00:43:46.531Z,10.53
2018-09-08T00:46:14.618Z,10.03
2018-09-08T00:48:42.725Z,11.30
2018-09-08T00:51:13.035Z,12.30
2018-09-08T00:53:41.072Z,11.47
2018-09-08T00:56:09.237Z,11.70
2018-09-08T00:58:45.724Z,12.40
2018-09-08T01:01:13.885Z,12.30
2018-09-08T01:03:44.220Z,12.90
2018-09-08T01:06:12.282Z,14.53
2018-09-08T01:08:40.444Z,15.97
2018-09-08T01:11:08.612Z,16.80
2018-09-08T01:13:36.675Z,15.83
2018-09-08T01:16:04.814Z,15.37
2018-09-08T01:18:35.865Z,16.07
2018-09-08T01:21:04.884Z,13.67
2018-09-08T01:23:32.989Z,13.20
2018-09-08T01:26:01.273Z,13.00
2018-09-08T01:28:29.405Z,13.60
2018-09-08T01:30:57.626Z,13.70
2018-09-08T01:33:26.030Z,16.23
2018-09-08T01:35:54.191Z,16.17
2018-09-08T01:38:22.269Z,16.60
2018-09-08T01:40:50.383Z,16.43
2018-09-08T01:43:18.627Z,15.00
2018-09-08T01:45:46.680Z,14.97
2018-09-08T01:48:14.728Z,13.37
2018-09-08T01:50:42.718Z,13.30
2018-09-08T01:53:10.770Z,12.90
2018-09-08T01:55:38.780Z,13.87
2018-09-08T01:58:06.801Z,13.90
2018-09-08T02:00:34.838Z,13.20
2018-09-08T02:03:02.868Z,12.27
2018-09-08T02:05:30.901Z,13.10
2018-09-08T02:07:58.947Z,13.40
2018-09-08T02:10:27.009Z,12.50
2018-09-08T02:12:55.032Z,10.67
2018-09-08T02:15:23.042Z,11.20
2018-09-08T02:17:51.074Z,9.93
2018-09-08T02:20:19.173Z,10.40
2018-09-08T02:22:47.199Z,11.63
2018-09-08T02:25:15.304Z,9.70
2018-09-08T02:27:43.314Z,9.50
2018-09-08T02:30:11.355Z,10.47
2018-09-08T02:32:39.379Z,9.57
2018-09-08T02:35:07.388Z,11.07
2018-09-08T02:37:35.387Z,11.80
2018-09-08T02:40:03.362Z,12.00
2018-09-08T02:42:31.361Z,11.40
2018-09-08T02:44:59.369Z,11.03
2018-09-08T02:47:27.356Z,11.00
2018-09-08T02:50:00.915Z,10.50
2018-09-08T02:52:28.427Z,9.50
2018-09-08T02:54:55.938Z,9.80
2018-09-08T02:57:23.504Z,10.70
2018-09-08T02:59:51.032Z,11.20
2018-09-08T03:02:18.522Z,12.80
2018-09-08T03:04:46.036Z,13.27
2018-09-08T03:07:14.649Z,12.97
2018-09-08T03:09:44.638Z,14.90
2018-09-08T03:12:12.503Z,13.73
2018-09-08T03:14:40.010Z,12.20
2018-09-08T03:17:07.851Z,12.33
2018-09-08T03:19:35.382Z,13.30
2018-09-08T03:22:02.912Z,11.80
2018-09-08T03:24:30.444Z,12.37
2018-09-08T03:26:57.925Z,11.10
2018-09-08T03:29:25.422Z,13.17
2018-09-08T03:31:52.936Z,11.00
2018-09-08T03:34:20.519Z,10.63
2018-09-08T03:36:48.146Z,10.80
2018-09-08T03:39:15.694Z,10.63
2018-09-08T03:41:43.236Z,11.00
2018-09-08T03:44:10.774Z,12.30
2018-09-08T03:46:38.535Z,13.30
2018-09-08T03:49:06.052Z,15.20
2018-09-08T03:51:33.534Z,15.43
2018-09-08T03:54:01.026Z,14.07
2018-09-08T03:56:28.543Z,14.13
2018-09-08T03:58:56.277Z,12.50
2018-09-08T04:01:23.894Z,12.00
2018-09-08T04:03:52.132Z,12.10
2018-09-08T04:06:20.299Z,11.70
2018-09-08T04:08:48.558Z,12.70
2018-09-08T04:11:16.816Z,14.17
2018-09-08T04:13:44.870Z,14.00
2018-09-08T04:16:12.936Z,12.37
2018-09-08T04:18:41.074Z,11.83
2018-09-08T04:21:09.158Z,10.70
2018-09-08T04:23:37.263Z,11.50
2018-09-08T04:26:05.427Z,13.40
2018-09-08T04:28:33.498Z,12.77
2018-09-08T04:31:02.407Z,11.80
2018-09-08T04:33:30.464Z,11.30
2018-09-08T04:35:58.634Z,13.33
2018-09-08T04:38:26.707Z,9.80
2018-09-08T04:40:54.823Z,12.27
2018-09-08T04:43:22.878Z,15.17
2018-09-08T04:45:51.047Z,13.23
2018-09-08T04:48:19.122Z,13.60
2018-09-08T04:50:47.172Z,11.47
2018-09-08T04:53:15.222Z,10.77
2018-09-08T04:55:43.303Z,9.67
2018-09-08T04:58:11.363Z,9.73
2018-09-08T05:00:39.445Z,9.83
2018-09-08T05:03:07.486Z,10.07
2018-09-08T05:05:35.635Z,10.80
2018-09-08T05:08:03.680Z,12.27
2018-09-08T05:10:31.854Z,13.53
2018-09-08T05:12:59.924Z,12.67
2018-09-08T05:15:29.046Z,12.23
2018-09-08T05:17:57.131Z,10.60
2018-09-08T05:20:25.150Z,11.10
2018-09-08T05:22:53.247Z,10.37
2018-09-08T05:25:21.275Z,12.87
2018-09-08T05:27:49.278Z,10.60
2018-09-08T05:30:17.322Z,10.70
2018-09-08T05:32:45.363Z,10.53
2018-09-08T05:35:13.369Z,10.47
2018-09-08T05:37:43.091Z,10.70
2018-09-08T05:40:13.064Z,9.80
2018-09-08T05:42:43.079Z,9.20
2018-09-08T05:45:11.138Z,9.87
2018-09-08T05:47:39.133Z,11.60
2018-09-08T05:50:10.968Z,10.33
2018-09-08T05:52:41.037Z,10.83
2018-09-08T05:55:09.083Z,11.30
2018-09-08T05:57:37.199Z,10.67
2018-09-08T06:00:05.183Z,10.63
2018-09-08T06:02:33.144Z,9.93
2018-09-08T06:05:01.127Z,12.23
2018-09-08T06:07:29.106Z,12.80
2018-09-08T06:09:57.258Z,14.33
2018-09-08T06:12:25.363Z,12.97
2018-09-08T06:14:53.539Z,12.63
2018-09-08T06:17:21.703Z,12.00
2018-09-08T06:19:49.676Z,14.20
2018-09-08T06:22:17.671Z,11.63
2018-09-08T06:24:45.765Z,11.57
2018-09-08T06:27:13.853Z,10.33
2018-09-08T06:29:41.901Z,10.93
2018-09-08T06:32:10.017Z,8.57
2018-09-08T06:34:38.139Z,8.83
2018-09-08T06:37:06.164Z,8.60
2018-09-08T06:39:34.231Z,8.93
2018-09-08T06:42:02.281Z,8.03
2018-09-08T06:44:30.366Z,8.20
2018-09-08T06:46:58.455Z,9.17
2018-09-08T06:49:26.543Z,8.20
2018-09-08T06:51:54.691Z,9.43
2018-09-08T06:54:22.979Z,8.13
2018-09-08T06:56:51.196Z,8.20
2018-09-08T06:59:23.018Z,7.53
2018-09-08T07:01:51.300Z,7.90
2018-09-08T07:04:19.544Z,6.97
2018-09-08T07:06:47.743Z,8.37
2018-09-08T07:09:16.000Z,7.90
2018-09-08T07:11:44.225Z,6.83
2018-09-08T07:14:12.552Z,6.07
2018-09-08T07:16:41.104Z,6.53
2018-09-08T07:19:10.576Z,6.90
2018-09-08T07:21:39.231Z,6.77
2018-09-08T07:24:07.839Z,6.47
2018-09-08T07:26:36.015Z,6.87
2018-09-08T07:29:04.389Z,7.07
2018-09-08T07:31:32.940Z,6.57
2018-09-08T07:34:01.230Z,7.00
2018-09-08T07:36:32.321Z,5.23
2018-09-08T07:39:00.540Z,6.57
2018-09-08T07:41:28.630Z,7.40
2018-09-08T07:43:56.751Z,6.57
2018-09-08T07:46:24.961Z,7.50
2018-09-08T07:48:53.043Z,7.40
2018-09-08T07:51:21.576Z,8.40
2018-09-08T07:53:50.067Z,7.80
2018-09-08T07:56:18.095Z,7.50
2018-09-08T07:58:46.195Z,7.20
2018-09-08T08:01:14.604Z,6.80
2018-09-08T08:03:42.718Z,6.73
2018-09-08T08:06:11.033Z,7.30
2018-09-08T08:08:39.407Z,5.50
2018-09-08T08:11:09.145Z,5.37
2018-09-08T08:13:37.456Z,4.53
2018-09-08T08:16:06.011Z,5.13
2018-09-08T08:18:34.083Z,3.77
2018-09-08T08:21:02.506Z,4.30
2018-09-08T08:23:30.736Z,4.40
2018-09-08T08:25:58.890Z,3.60
2018-09-08T08:28:27.421Z,4.37
2018-09-08T08:30:55.678Z,3.97
2018-09-08T08:33:23.833Z,5.07
2018-09-08T08:35:52.191Z,4.90
2018-09-08T08:38:20.681Z,5.30
2018-09-08T08:40:49.306Z,6.00
2018-09-08T08:43:17.982Z,4.30
2018-09-08T08:45:46.396Z,4.60
2018-09-08T08:48:14.645Z,5.00
2018-09-08T08:50:48.532Z,4.50
2018-09-08T08:53:22.519Z,5.33
2018-09-08T08:55:51.104Z,5.40
2018-09-08T08:58:19.405Z,5.23
2018-09-08T09:00:48.726Z,5.13
2018-09-08T09:03:16.899Z,4.37
2018-09-08T09:05:45.013Z,4.73
2018-09-08T09:08:13.312Z,5.50
2018-09-08T09:10:41.475Z,5.07
2018-09-08T09:13:14.053Z,5.43
2018-09-08T09:15:42.286Z,4.90
2018-09-08T09:18:10.831Z,5.10
2018-09-08T09:20:44.577Z,5.30
2018-09-08T09:24:17.593Z,5.20
2018-09-08T09:26:46.317Z,5.90
2018-09-08T09:29:14.578Z,5.10
2018-09-08T09:31:42.746Z,4.90
2018-09-08T09:34:11.405Z,5.10
2018-09-08T09:36:40.277Z,5.73
2018-09-08T09:39:09.286Z,5.10
2018-09-08T09:41:37.379Z,6.27
2018-09-08T09:44:09.104Z,5.93
2018-09-08T09:46:37.288Z,6.03
2018-09-08T09:49:05.912Z,5.67
2018-09-08T09:51:34.012Z,5.40
2018-09-08T09:54:02.214Z,5.40
2018-09-08T09:56:30.276Z,6.80
2018-09-08T09:58:58.468Z,5.40
2018-09-08T10:01:33.128Z,5.03
2018-09-08T10:04:01.449Z,5.57
2018-09-08T10:06:29.663Z,4.70
2018-09-08T10:08:57.912Z,4.23
2018-09-08T10:11:26.194Z,4.63
2018-09-08T10:13:54.527Z,3.80
2018-09-08T10:16:23.251Z,4.47
2018-09-08T10:18:51.398Z,3.83
2018-09-08T10:21:19.589Z,3.87
2018-09-08T10:24:04.345Z,3.80
2018-09-08T10:26:17.483Z,3.33
2018-09-08T10:28:47.386Z,2.93
2018-09-08T10:31:15.790Z,3.53
2018-09-08T10:33:44.335Z,3.40
2018-09-08T10:36:12.943Z,3.30
2018-09-08T10:38:41.375Z,3.07
2018-09-08T10:41:10.112Z,3.20
2018-09-08T10:43:38.284Z,3.13
2018-09-08T10:46:06.409Z,3.50
2018-09-08T10:48:34.502Z,3.03
2018-09-08T10:52:09.790Z,2.83
2018-09-08T10:54:39.198Z,3.47
2018-09-08T10:57:07.827Z,3.13
2018-09-08T10:59:35.928Z,3.27
2018-09-08T11:02:04.191Z,3.03
2018-09-08T11:04:32.203Z,4.20
2018-09-08T11:07:00.396Z,2.90
2018-09-08T11:09:28.754Z,3.47
2018-09-08T11:11:57.063Z,3.37
2018-09-08T11:14:25.196Z,3.37
2018-09-08T11:16:53.329Z,3.00
2018-09-08T11:19:21.574Z,2.80
2018-09-08T11:21:49.931Z,3.10
2018-09-08T11:24:18.190Z,3.30
2018-09-08T11:26:46.672Z,3.37
2018-09-08T11:29:14.791Z,3.53
2018-09-08T11:31:43.003Z,3.23
2018-09-08T11:34:11.063Z,3.73
2018-09-08T11:36:39.245Z,3.97
2018-09-08T11:39:07.447Z,3.73
2018-09-08T11:41:36.070Z,3.47
2018-09-08T11:44:04.265Z,3.60
2018-09-08T11:46:32.748Z,3.57
2018-09-08T11:49:00.872Z,3.50
2018-09-08T11:51:29.006Z,3.70
2018-09-08T11:53:57.177Z,2.97
2018-09-08T11:56:25.249Z,3.50
2018-09-08T11:58:53.298Z,3.90
2018-09-08T12:01:21.326Z,3.30
2018-09-08T12:03:49.456Z,4.10
2018-09-08T12:06:17.624Z,3.80
2018-09-08T12:08:45.622Z,3.53
2018-09-08T12:11:13.656Z,5.03
2018-09-08T12:13:41.816Z,3.40
2018-09-08T12:16:09.972Z,3.43
2018-09-08T12:18:38.111Z,4.50
2018-09-08T12:21:06.374Z,3.33
2018-09-08T12:23:34.621Z,3.37
2018-09-08T12:26:02.667Z,3.13
2018-09-08T12:28:30.779Z,2.97
2018-09-08T12:30:59.425Z,3.40
2018-09-08T12:33:27.504Z,4.03
2018-09-08T12:35:55.869Z,3.53
2018-09-08T12:38:24.023Z,3.87
2018-09-08T12:40:52.266Z,3.50
2018-09-08T12:43:20.935Z,3.70
2018-09-08T12:45:49.444Z,3.67
2018-09-08T12:48:18.955Z,3.87
2018-09-08T12:50:47.147Z,3.80
2018-09-08T12:53:15.393Z,3.23
2018-09-08T12:55:43.643Z,3.57
2018-09-08T12:58:11.929Z,3.13
2018-09-08T13:00:40.851Z,3.90
2018-09-08T13:03:10.088Z,3.53
2018-09-08T13:05:38.338Z,3.73
2018-09-08T13:08:06.420Z,3.60
2018-09-08T13:10:34.807Z,2.93
2018-09-08T13:13:03.412Z,4.03
2018-09-08T13:15:31.709Z,3.90
2018-09-08T13:17:59.924Z,3.63
2018-09-08T13:20:28.108Z,3.57
2018-09-08T13:22:56.231Z,3.10
2018-09-08T13:25:24.580Z,2.80
2018-09-08T13:27:52.828Z,2.60
2018-09-08T13:30:21.336Z,3.80
2018-09-08T13:32:49.679Z,2.60
2018-09-08T13:35:18.009Z,3.60
2018-09-08T13:37:46.143Z,2.80
2018-09-08T13:40:14.282Z,3.50
2018-09-08T13:42:42.494Z,3.27
2018-09-08T13:45:10.622Z,3.30
2018-09-08T13:47:38.779Z,3.07
2018-09-08T13:50:06.958Z,4.10
2018-09-08T13:52:35.204Z,3.80
2018-09-08T13:55:04.401Z,3.97
2018-09-08T13:57:32.864Z,4.10
2018-09-08T14:00:01.274Z,3.20
2018-09-08T14:02:29.769Z,4.10
2018-09-08T14:04:58.281Z,3.40
2018-09-08T14:07:26.626Z,3.50
2018-09-08T14:09:55.557Z,3.80
2018-09-08T14:12:24.357Z,3.00
2018-09-08T14:14:53.033Z,2.97
2018-09-08T14:17:21.673Z,2.63
2018-09-08T14:19:50.122Z,3.73
2018-09-08T14:22:18.442Z,2.67
2018-09-08T14:24:46.581Z,2.67
2018-09-08T14:27:14.718Z,2.90
2018-09-08T14:29:43.004Z,3.50
2018-09-08T14:32:11.175Z,3.30
2018-09-08T14:34:39.613Z,3.10
2018-09-08T14:37:07.836Z,3.53
2018-09-08T14:39:36.060Z,3.53
2018-09-08T14:42:04.190Z,3.70
2018-09-08T14:44:32.247Z,3.43
2018-09-08T14:47:00.308Z,3.43
2018-09-08T14:49:28.367Z,3.13
2018-09-08T14:51:56.421Z,3.30
2018-09-08T14:54:24.525Z,3.40
2018-09-08T14:56:52.764Z,3.43
2018-09-08T14:59:23.073Z,4.23
2018-09-08T15:01:51.156Z,3.33
2018-09-08T15:04:19.221Z,4.00
2018-09-08T15:06:47.325Z,4.30
2018-09-08T15:09:15.380Z,4.00
2018-09-08T15:11:43.604Z,3.50
2018-09-08T15:14:11.756Z,4.03
2018-09-08T15:16:40.068Z,3.70
2018-09-08T15:19:08.127Z,3.53
2018-09-08T15:21:36.200Z,3.83
2018-09-08T15:24:04.256Z,4.00
2018-09-08T15:26:32.380Z,3.27
2018-09-08T15:29:00.418Z,3.73
2018-09-08T15:31:28.499Z,4.00
2018-09-08T15:33:56.557Z,4.00
2018-09-08T15:36:24.596Z,3.77
2018-09-08T15:38:52.647Z,4.00
2018-09-08T15:41:21.712Z,3.83
2018-09-08T15:43:49.812Z,3.97
2018-09-08T15:46:17.884Z,4.20
2018-09-08T15:48:46.028Z,4.10
2018-09-08T15:51:14.062Z,3.30
2018-09-08T15:53:42.344Z,4.03
2018-09-08T15:56:10.384Z,3.37
2018-09-08T15:58:38.565Z,3.47
2018-09-08T16:01:06.501Z,3.43
2018-09-08T16:03:34.524Z,3.53
2018-09-08T16:06:02.551Z,3.90
2018-09-08T16:08:30.602Z,3.30
2018-09-08T16:10:58.674Z,4.53
2018-09-08T16:13:26.627Z,3.50
2018-09-08T16:15:54.615Z,3.40
2018-09-08T16:18:22.654Z,3.83
2018-09-08T16:20:52.783Z,3.13
2018-09-08T16:23:20.822Z,4.27
2018-09-08T16:25:48.848Z,2.53
2018-09-08T16:28:17.197Z,4.40
2018-09-08T16:30:46.321Z,3.17
2018-09-08T16:33:14.348Z,3.90
2018-09-08T16:35:42.380Z,3.20
2018-09-08T16:38:10.415Z,3.83
2018-09-08T16:40:38.449Z,3.23
2018-09-08T16:43:06.504Z,3.83
2018-09-08T16:45:34.541Z,3.77
2018-09-08T16:48:02.581Z,3.67
2018-09-08T16:50:30.601Z,4.20
2018-09-08T16:52:58.684Z,3.20
2018-09-08T16:55:26.715Z,3.60
2018-09-08T16:57:54.760Z,3.93
2018-09-08T17:00:22.868Z,3.80
2018-09-08T17:02:50.902Z,2.80
2018-09-08T17:05:18.976Z,4.07
2018-09-08T17:07:46.983Z,3.10
2018-09-08T17:10:15.009Z,3.90
2018-09-08T17:12:43.140Z,4.23
2018-09-08T17:15:11.178Z,4.00
2018-09-08T17:17:39.215Z,3.50
2018-09-08T17:20:07.385Z,3.77
2018-09-08T17:22:35.469Z,5.20
2018-09-08T17:25:03.520Z,4.20
2018-09-08T17:27:31.570Z,3.67
2018-09-08T17:29:59.607Z,3.50
2018-09-08T17:32:27.654Z,4.10
2018-09-08T17:34:55.987Z,3.70
2018-09-08T17:37:24.021Z,5.10
2018-09-08T17:39:52.099Z,3.87
2018-09-08T17:42:20.162Z,4.10
2018-09-08T17:44:48.199Z,3.83
2018-09-08T17:47:16.254Z,4.40
2018-09-08T17:49:44.289Z,4.57
2018-09-08T17:52:12.389Z,5.10
2018-09-08T17:54:40.380Z,4.47
2018-09-08T17:57:08.419Z,4.20
2018-09-08T17:59:37.036Z,5.40
2018-09-08T18:02:05.098Z,6.10
2018-09-08T18:04:33.146Z,4.80
2018-09-08T18:07:01.196Z,5.50
2018-09-08T18:09:29.256Z,5.10
2018-09-08T18:11:57.349Z,6.23
2018-09-08T18:14:25.373Z,6.60
2018-09-08T18:16:53.495Z,6.53
2018-09-08T18:19:21.559Z,6.20
2018-09-08T18:21:49.572Z,6.10
2018-09-08T18:24:17.569Z,6.20
2018-09-08T18:26:45.560Z,8.63
2018-09-08T18:29:13.569Z,10.23
2018-09-08T18:31:41.576Z,11.03
2018-09-08T18:34:09.587Z,9.33
2018-09-08T18:36:37.656Z,9.30
2018-09-08T18:39:10.318Z,9.10
2018-09-08T18:41:38.416Z,9.50
2018-09-08T18:44:06.405Z,9.97
2018-09-08T18:46:34.424Z,10.80
2018-09-08T18:49:02.490Z,8.90
2018-09-08T18:51:30.506Z,8.80
2018-09-08T18:53:58.848Z,11.37
2018-09-08T18:56:26.840Z,11.37
2018-09-08T18:58:55.001Z,11.03
2018-09-08T19:01:24.295Z,11.30
2018-09-08T19:03:52.387Z,11.00
2018-09-08T19:06:20.393Z,9.53
2018-09-08T19:08:48.415Z,11.20
2018-09-08T19:11:16.524Z,9.90
2018-09-08T19:13:44.733Z,10.70
2018-09-08T19:16:12.703Z,9.30
2018-09-08T19:18:40.698Z,9.73
2018-09-08T19:21:08.676Z,9.73
2018-09-08T19:23:36.736Z,10.00
2018-09-08T19:26:04.729Z,10.27
2018-09-08T19:28:32.696Z,11.07
2018-09-08T19:31:00.692Z,11.80
2018-09-08T19:33:28.699Z,10.50
2018-09-08T19:35:56.720Z,11.63
2018-09-08T19:38:24.735Z,10.23
2018-09-08T19:40:53.050Z,10.77
2018-09-08T19:43:21.080Z,10.00
2018-09-08T19:45:49.117Z,10.70
2018-09-08T19:48:18.462Z,11.00
2018-09-08T19:50:46.525Z,11.20
2018-09-08T19:53:20.130Z,11.17
2018-09-08T19:55:48.155Z,11.00
2018-09-08T19:58:21.561Z,12.10
2018-09-08T20:00:49.576Z,15.87
2018-09-08T20:03:17.595Z,17.97
2018-09-08T20:05:45.614Z,19.07
2018-09-08T20:08:13.631Z,16.27
2018-09-08T20:10:41.659Z,15.53
2018-09-08T20:13:09.671Z,15.87
2018-09-08T20:15:37.697Z,12.17
2018-09-08T20:18:05.682Z,13.27
2018-09-08T20:20:33.707Z,12.27
2018-09-08T20:23:01.774Z,10.40
2018-09-08T20:25:29.762Z,9.13
2018-09-08T20:27:57.786Z,8.00
2018-09-08T20:30:25.802Z,7.93
2018-09-08T20:32:53.868Z,7.80
2018-09-08T20:35:21.866Z,9.13
2018-09-08T20:37:51.934Z,10.70
2018-09-08T20:40:19.967Z,12.20
2018-09-08T20:42:47.993Z,12.50
2018-09-08T20:45:16.012Z,13.10
2018-09-08T20:47:44.073Z,14.30
2018-09-08T20:50:12.013Z,12.10
2018-09-08T20:52:39.962Z,11.70
2018-09-08T20:55:07.991Z,11.10
2018-09-08T20:57:35.997Z,11.17
2018-09-08T21:00:04.052Z,10.03
2018-09-08T21:02:32.087Z,10.20
2018-09-08T21:05:00.128Z,10.40
2018-09-08T21:07:28.177Z,10.37
2018-09-08T21:09:56.195Z,9.30
2018-09-08T21:12:24.215Z,9.47
2018-09-08T21:14:52.236Z,9.97
2018-09-08T21:17:20.310Z,10.00
2018-09-08T21:19:48.337Z,9.10
2018-09-08T21:22:16.371Z,9.33
2018-09-08T21:24:44.390Z,10.07
2018-09-08T21:27:12.409Z,9.60
2018-09-08T21:29:40.427Z,7.80
2018-09-08T21:32:08.476Z,8.00
2018-09-08T21:34:36.528Z,10.30
2018-09-08T21:37:04.554Z,9.03
2018-09-08T21:39:32.578Z,8.80
2018-09-08T21:42:00.607Z,10.00
2018-09-08T21:44:28.656Z,9.60
2018-09-08T21:46:56.690Z,8.53
2018-09-08T21:49:24.732Z,8.93
2018-09-08T21:51:52.756Z,8.57
2018-09-08T21:54:20.783Z,9.70
2018-09-08T21:56:48.816Z,8.70
2018-09-08T21:59:16.860Z,9.30
2018-09-08T22:01:45.140Z,7.83
2018-09-08T22:04:13.329Z,9.17
2018-09-08T22:06:41.552Z,8.67
2018-09-08T22:09:09.877Z,8.50
2018-09-08T22:11:38.072Z,10.70
2018-09-08T22:14:06.241Z,9.23
2018-09-08T22:16:34.377Z,9.67
2018-09-08T22:19:02.616Z,9.33
2018-09-08T22:21:30.801Z,8.60
2018-09-08T22:23:58.982Z,9.30
2018-09-08T22:26:27.189Z,9.50
2018-09-08T22:28:55.359Z,8.33
2018-09-08T22:31:23.546Z,8.50
2018-09-08T22:33:51.714Z,8.17
2018-09-08T22:36:19.923Z,8.20
2018-09-08T22:38:48.136Z,8.10
2018-09-08T22:41:16.377Z,7.77
2018-09-08T22:43:44.564Z,6.87
2018-09-08T22:46:12.709Z,8.80
2018-09-08T22:48:40.885Z,8.50
2018-09-08T22:51:09.055Z,8.00
2018-09-08T22:53:37.251Z,7.70
2018-09-08T22:56:05.510Z,8.10
2018-09-08T22:58:33.638Z,8.20
2018-09-08T23:01:01.770Z,7.90
2018-09-08T23:03:29.901Z,8.20
2018-09-08T23:05:58.001Z,7.57
2018-09-08T23:08:26.147Z,9.57
2018-09-08T23:10:54.321Z,8.10
2018-09-08T23:13:22.482Z,8.67
2018-09-08T23:15:50.645Z,8.10
2018-09-08T23:18:18.773Z,9.00
2018-09-08T23:20:46.894Z,8.37
2018-09-08T23:23:15.061Z,8.93
2018-09-08T23:25:43.206Z,10.07
2018-09-08T23:28:11.347Z,8.43
2018-09-08T23:30:39.516Z,8.70
2018-09-08T23:33:07.499Z,9.57
2018-09-08T23:35:35.579Z,8.60
2018-09-08T23:38:03.694Z,9.30
2018-09-08T23:40:31.735Z,8.97
2018-09-08T23:42:59.801Z,10.10
2018-09-08T23:45:30.331Z,9.50
2018-09-08T23:47:58.477Z,10.37
2018-09-08T23:50:26.585Z,10.70
2018-09-08T23:52:54.679Z,10.40
2018-09-08T23:55:22.862Z,10.30
2018-09-08T23:57:50.879Z,10.73
